Time;durP1;ratioP1;P1;durP2;ratioP2;P2;SDS_P1;SDS_P2;PMS_P1;PMS_P2;Temp;Humidity;BMP_temperature;BMP_pressure;BME280_temperature;BME280_humidity;BME280_pressure;Samples;Min_cycle;Max_cycle;Signal;HPM_P1;HPM_P2
2021/01/16 08:29:09;;;;;;;4.38;3.28;;;;;;;4.84;69.76;98401.53;9948757;29;20403;-78
2021/01/16 08:34:47;;;;;;;6.65;2.90;;;;;;;8.58;62.46;98393.72;9925193;29;20066;-77
2021/01/16 08:40:08;;;;;;;3.80;3.15;;;;;;;6.22;58.10;98388.53;9951379;29;20138;-77
2021/01/16 08:45:28;;;;;;;5.03;3.55;;;;;;;5.11;59.13;98390.31;9951427;29;20078;-77
2021/01/16 08:50:47;;;;;;;6.55;3.80;;;;;;;5.93;60.85;98396.19;9950393;29;20070;-77
2021/01/16 08:56:28;;;;;;;5.78;3.47;;;;;;;6.49;58.17;98398.03;9952167;29;20398;-77
2021/01/16 09:01:54;;;;;;;5.05;3.60;;;;;;;5.07;56.93;98392.69;9950416;29;20067;-78
2021/01/16 09:07:23;;;;;;;4.97;3.58;;;;;;;4.43;55.57;98398.75;9937574;29;20368;-77
2021/01/16 09:12:43;;;;;;;10.55;4.50;;;;;;;4.17;57.81;98394.81;9937680;29;20151;-76
2021/01/16 09:18:21;;;;;;;5.88;4.05;;;;;;;3.72;56.82;98384.69;9949491;29;20629;-76
2021/01/16 09:23:41;;;;;;;5.60;3.78;;;;;;;3.17;56.51;98394.75;9949259;29;20063;-76
2021/01/16 09:29:01;;;;;;;6.65;3.88;;;;;;;2.49;54.55;98384.09;9949048;29;20063;-77
2021/01/16 09:34:21;;;;;;;7.38;4.32;;;;;;;2.27;56.10;98392.72;9923308;29;20059;-76
2021/01/16 09:39:41;;;;;;;6.82;4.07;;;;;;;2.25;53.58;98389.75;9935482;29;20507;-76
2021/01/16 09:45:01;;;;;;;5.38;3.20;;;;;;;2.33;55.82;98378.88;9922478;29;20063;-75
2021/01/16 09:50:21;;;;;;;5.32;3.22;;;;;;;2.47;55.17;98386.66;9947847;29;20086;-76
2021/01/16 09:55:41;;;;;;;5.40;3.22;;;;;;;1.93;51.84;98370.38;9948615;29;20069;-76
2021/01/16 10:01:23;;;;;;;4.43;3.17;;;;;;;1.09;53.51;98366.63;9947282;29;20071;-75
2021/01/16 10:06:43;;;;;;;5.95;3.03;;;;;;;0.80;53.51;98350.94;9934108;29;20093;-76
2021/01/16 10:12:03;;;;;;;4.25;3.38;;;;;;;0.94;54.25;98354.53;9934421;29;20084;-76
2021/01/16 10:17:24;;;;;;;5.28;3.67;;;;;;;1.06;53.56;98347.66;9933811;29;20070;-77
2021/01/16 10:22:53;;;;;;;8.82;4.10;;;;;;;1.08;53.64;98340.41;9921240;29;20066;-77
2021/01/16 10:28:29;;;;;;;6.03;3.40;;;;;;;0.99;51.95;98331.75;9947635;29;20059;-76
2021/01/16 10:33:48;;;;;;;5.07;3.10;;;;;;;0.54;52.50;98321.16;9947557;29;20486;-76
2021/01/16 10:39:13;;;;;;;4.75;2.80;;;;;;;0.50;53.66;98309.72;9940043;29;20059;-79
2021/01/16 10:44:32;;;;;;;4.80;3.07;;;;;;;0.71;53.27;98293.53;9937798;29;20149;-75
2021/01/16 10:49:52;;;;;;;4.00;2.55;;;;;;;0.97;53.05;98284.78;9919159;29;20647;-76
2021/01/16 10:55:13;;;;;;;4.25;2.30;;;;;;;1.08;53.05;98285.41;9908367;29;20070;-74
2021/01/16 11:00:42;;;;;;;4.38;2.85;;;;;;;0.86;52.21;98286.38;9946641;29;20479;-79
2021/01/16 11:06:10;;;;;;;3.67;2.75;;;;;;;0.48;52.95;98265.53;9959113;29;20200;-77
2021/01/16 11:12:04;;;;;;;3.67;2.60;;;;;;;0.61;52.99;98257.44;9966203;24;20047;-81
2021/01/16 11:17:53;;;;;;;4.90;2.97;;;;;;;0.84;52.91;98255.19;9888417;29;20063;-75
2021/01/16 11:23:47;;;;;;;4.30;2.42;;;;;;;0.34;53.00;98247.44;9870566;30;20075;-78
2021/01/16 11:29:16;;;;;;;3.80;2.70;;;;;;;-0.01;53.44;98252.47;9861988;30;20064;-78
2021/01/16 11:34:59;;;;;;;4.38;2.75;;;;;;;-0.12;55.05;98246.31;9864455;30;20644;-79
2021/01/16 12:06:14;;;;;;;5.70;3.22;;;;;;;1.06;52.62;98207.44;9777083;24;20086;-80
2021/01/16 12:11:58;;;;;;;5.93;3.67;;;;;;;1.50;52.28;98205.34;9952978;29;20102;-79
2021/01/16 12:17:20;;;;;;;6.50;3.95;;;;;;;1.40;52.02;98202.25;9972754;29;20123;-78
2021/01/16 12:22:45;;;;;;;5.13;3.90;;;;;;;1.10;52.05;98203.13;9962154;29;20070;-79
2021/01/16 12:28:12;;;;;;;5.47;3.78;;;;;;;1.22;52.15;98184.47;9989783;29;20062;-79
2021/01/16 12:33:33;;;;;;;5.82;3.67;;;;;;;1.27;52.10;98180.91;9991574;29;20086;-80
2021/01/16 12:38:54;;;;;;;4.93;3.55;;;;;;;1.11;52.32;98171.63;9965892;29;20064;-80
2021/01/16 12:44:14;;;;;;;5.75;3.03;;;;;;;0.81;51.69;98162.78;9979807;29;20062;-79
2021/01/16 12:49:39;;;;;;;5.40;3.13;;;;;;;0.82;51.74;98164.25;10005697;29;20090;-80
2021/01/16 12:55:11;;;;;;;4.45;2.83;;;;;;;0.52;52.29;98145.13;9977422;29;20038;-80
2021/01/16 13:01:08;;;;;;;;;;;;;;;;;;;;;
2021/01/16 13:07:09;;;;;;;5.68;3.22;;;;;;;-0.07;52.18;98133.75;9876118;30;20063;-79
2021/01/16 13:12:46;;;;;;;3.67;2.55;;;;;;;-0.02;52.83;98127.47;10020437;24;20061;-79
2021/01/16 13:18:19;;;;;;;4.45;2.50;;;;;;;0.07;51.98;98120.88;10076212;24;20509;-78
2021/01/16 13:23:44;;;;;;;3.90;2.30;;;;;;;-0.08;51.90;98123.31;9971990;29;20073;-81
2021/01/16 13:43:08;;;;;;;8.30;3.67;;;;;;;0.49;51.47;98116.69;8582139;24;20053;-82
2021/01/16 14:01:40;;;;;;;4.05;2.65;;;;;;;-0.11;51.29;98116.06;10170916;24;20062;-80
2021/01/16 14:07:03;;;;;;;3.78;2.38;;;;;;;-0.15;50.34;98101.91;9903075;29;20066;-79
2021/01/16 14:12:32;;;;;;;;;;;;;;;-0.21;51.28;98109.44;9959212;29;20062;-82
2021/01/16 14:29:44;;;;;;;5.72;3.63;;;;;;;-0.49;51.67;98098.72;3350029;24;20068;-79
2021/01/16 14:35:24;;;;;;;7.70;4.50;;;;;;;-0.69;51.23;98088.91;10149036;24;20060;-81
2021/01/16 15:00:19;;;;;;;7.85;4.57;;;;;;;-1.58;52.18;98077.22;8631175;27;20075;-77
2021/01/16 15:05:39;;;;;;;7.90;4.95;;;;;;;-1.66;52.32;98065.31;9867660;30;20064;-79
2021/01/16 16:57:28;;;;;;;8.93;6.50;;;;;;;-3.30;57.80;98021.56;11714168;24;20041;-82
2021/01/16 17:03:19;;;;;;;9.98;6.93;;;;;;;-3.38;56.23;98020.53;10609140;24;20044;31
2021/01/16 17:09:24;;;;;;;;;;;;;;;-3.56;56.82;98021.78;10194077;24;20058;-81
2021/01/16 17:15:00;;;;;;;10.30;6.78;;;;;;;-3.62;58.19;98015.53;9942586;29;19932;-77
2021/01/16 17:39:20;;;;;;;12.18;7.75;;;;;;;-4.05;57.09;98004.75;11963534;24;21213;-80
2021/01/16 17:44:40;;;;;;;14.20;8.73;;;;;;;-4.08;57.76;98014.63;9910205;29;20058;-79
2021/01/16 17:50:03;;;;;;;15.15;9.07;;;;;;;-4.19;57.40;98005.66;9969651;29;20043;-82
2021/01/16 17:55:24;;;;;;;14.10;8.82;;;;;;;-4.24;57.50;98003.69;10029546;24;20530;-80
2021/01/16 18:12:34;;;;;;;14.82;8.40;;;;;;;-4.04;57.25;98006.25;9527550;24;20030;-81
2021/01/16 18:18:49;;;;;;;15.68;8.55;;;;;;;-3.96;58.06;98001.78;9985453;24;20031;-80
2021/01/16 18:57:13;;;;;;;13.50;9.07;;;;;;;-4.57;57.60;97988.63;9833686;30;19926;-80
2021/01/16 19:09:11;;;;;;;14.40;8.95;;;;;;;-4.83;58.17;97983.25;11010168;24;20071;-81
2021/01/16 19:33:39;;;;;;;13.00;8.43;;;;;;;-4.65;58.75;97976.69;11302641;24;20051;-83
2021/01/16 20:24:43;;;;;;;11.13;7.15;;;;;;;-4.29;59.30;97941.69;11076251;24;20061;-81
2021/01/16 20:53:15;;;;;;;11.27;6.25;;;;;;;-4.01;59.68;97939.81;10074336;29;20055;-81
2021/01/16 20:59:50;;;;;;;10.43;6.40;;;;;;;-4.04;59.96;97940.81;10003906;29;20069;-83
2021/01/16 21:21:04;;;;;;;11.00;7.35;;;;;;;-3.83;60.09;97906.63;10634683;24;20059;-79
2021/01/16 21:26:25;;;;;;;12.90;7.88;;;;;;;-3.80;60.75;97889.25;9946669;29;20058;-79
